sensor_id;sensor_type;location;lat;lon;timestamp;pressure;altitude;pressure_sealevel;temperature;humidity
70304;BME280;57712;48.752;11.348;2024-01-15T00:00:21;96273.22;;;-2.69;100.00
70304;BME280;57712;48.752;11.348;2024-01-15T00:02:48;96277.72;;;-2.73;100.00
70304;BME280;57712;48.752;11.348;2024-01-15T00:05:15;96272.69;;;-2.78;100.00
70304;BME280;57712;48.752;11.348;2024-01-15T00:07:42;96267.78;;;-2.73;100.00
70304;BME280;57712;48.752;11.348;2024-01-15T00:10:11;96263.66;;;-2.67;100.00
70304;BME280;57712;48.752;11.348;2024-01-15T00:12:38;96266.75;;;-2.65;100.00
70304;BME280;57712;48.752;11.348;2024-01-15T00:15:05;96266.31;;;-2.70;100.00
70304;BME280;57712;48.752;11.348;2024-01-15T00:17:32;96271.78;;;-2.89;100.00
70304;BME280;57712;48.752;11.348;2024-01-15T00:19:58;96261.06;;;-2.89;100.00
70304;BME280;57712;48.752;11.348;2024-01-15T00:22:26;96262.38;;;-2.76;100.00
70304;BME280;57712;48.752;11.348;2024-01-15T00:24:53;96260.09;;;-2.74;100.00
70304;BME280;57712;48.752;11.348;2024-01-15T00:27:20;96256.66;;;-2.75;100.00
70304;BME280;57712;48.752;11.348;2024-01-15T00:29:47;96258.91;;;-2.80;100.00
70304;BME280;57712;48.752;11.348;2024-01-15T00:32:14;96274.28;;;-2.74;100.00
70304;BME280;57712;48.752;11.348;2024-01-15T00:34:41;96267.63;;;-2.83;100.00
70304;BME280;57712;48.752;11.348;2024-01-15T00:37:08;96253.56;;;-2.77;100.00
70304;BME280;57712;48.752;11.348;2024-01-15T00:39:35;96252.84;;;-2.74;100.00
70304;BME280;57712;48.752;11.348;2024-01-15T00:42:02;96250.50;;;-2.79;100.00
70304;BME280;57712;48.752;11.348;2024-01-15T00:44:29;96261.97;;;-2.78;100.00
70304;BME280;57712;48.752;11.348;2024-01-15T00:46:56;96257.41;;;-2.78;100.00
70304;BME280;57712;48.752;11.348;2024-01-15T00:49:23;96263.41;;;-2.58;100.00
70304;BME280;57712;48.752;11.348;2024-01-15T00:51:49;96268.28;;;-2.64;100.00
70304;BME280;57712;48.752;11.348;2024-01-15T00:54:16;96267.00;;;-2.73;100.00
70304;BME280;57712;48.752;11.348;2024-01-15T00:56:43;96272.94;;;-2.60;100.00
70304;BME280;57712;48.752;11.348;2024-01-15T00:59:10;96277.59;;;-2.54;100.00
70304;BME280;57712;48.752;11.348;2024-01-15T01:01:42;96278.38;;;-2.53;100.00
70304;BME280;57712;48.752;11.348;2024-01-15T01:04:12;96280.00;;;-2.49;100.00
70304;BME280;57712;48.752;11.348;2024-01-15T01:06:39;96268.53;;;-2.46;100.00
70304;BME280;57712;48.752;11.348;2024-01-15T01:09:06;96268.19;;;-2.41;100.00
70304;BME280;57712;48.752;11.348;2024-01-15T01:11:33;96257.97;;;-2.32;100.00
70304;BME280;57712;48.752;11.348;2024-01-15T01:14:00;96252.09;;;-2.41;100.00
70304;BME280;57712;48.752;11.348;2024-01-15T01:16:27;96248.59;;;-2.48;100.00
70304;BME280;57712;48.752;11.348;2024-01-15T01:18:54;96252.56;;;-2.35;100.00
70304;BME280;57712;48.752;11.348;2024-01-15T01:21:21;96254.78;;;-2.41;100.00
70304;BME280;57712;48.752;11.348;2024-01-15T01:23:48;96255.56;;;-2.40;100.00
70304;BME280;57712;48.752;11.348;2024-01-15T01:26:18;96250.13;;;-2.47;100.00
70304;BME280;57712;48.752;11.348;2024-01-15T01:28:45;96257.84;;;-2.42;100.00
70304;BME280;57712;48.752;11.348;2024-01-15T01:31:11;96255.44;;;-2.51;100.00
70304;BME280;57712;48.752;11.348;2024-01-15T01:33:38;96265.44;;;-2.48;100.00
70304;BME280;57712;48.752;11.348;2024-01-15T01:36:08;96264.06;;;-2.35;100.00
70304;BME280;57712;48.752;11.348;2024-01-15T01:38:37;96269.41;;;-2.38;100.00
70304;BME280;57712;48.752;11.348;2024-01-15T01:41:04;96264.81;;;-2.38;100.00
70304;BME280;57712;48.752;11.348;2024-01-15T01:43:31;96258.56;;;-2.45;100.00
70304;BME280;57712;48.752;11.348;2024-01-15T01:46:00;96254.78;;;-2.41;100.00
70304;BME280;57712;48.752;11.348;2024-01-15T01:48:28;96248.84;;;-2.27;100.00
70304;BME280;57712;48.752;11.348;2024-01-15T01:50:57;96256.44;;;-2.33;100.00
70304;BME280;57712;48.752;11.348;2024-01-15T01:53:28;96252.44;;;-2.46;100.00
70304;BME280;57712;48.752;11.348;2024-01-15T01:55:57;96259.09;;;-2.33;100.00
70304;BME280;57712;48.752;11.348;2024-01-15T01:58:23;96262.63;;;-2.28;100.00
70304;BME280;57712;48.752;11.348;2024-01-15T02:00:52;96264.16;;;-2.27;100.00
70304;BME280;57712;48.752;11.348;2024-01-15T02:03:20;96267.25;;;-2.25;100.00
70304;BME280;57712;48.752;11.348;2024-01-15T02:05:48;96277.84;;;-2.36;100.00
70304;BME280;57712;48.752;11.348;2024-01-15T02:08:16;96273.16;;;-2.43;100.00
70304;BME280;57712;48.752;11.348;2024-01-15T02:10:46;96272.84;;;-2.38;100.00
70304;BME280;57712;48.752;11.348;2024-01-15T02:13:13;96282.22;;;-2.51;100.00
70304;BME280;57712;48.752;11.348;2024-01-15T02:15:40;96272.00;;;-2.42;100.00
70304;BME280;57712;48.752;11.348;2024-01-15T02:18:07;96279.25;;;-2.46;100.00
70304;BME280;57712;48.752;11.348;2024-01-15T02:20:36;96277.06;;;-2.37;100.00
70304;BME280;57712;48.752;11.348;2024-01-15T02:23:14;96273.25;;;-2.36;100.00
70304;BME280;57712;48.752;11.348;2024-01-15T02:25:45;96273.88;;;-2.46;100.00
70304;BME280;57712;48.752;11.348;2024-01-15T02:28:15;96265.47;;;-2.44;100.00
70304;BME280;57712;48.752;11.348;2024-01-15T02:30:42;96270.88;;;-2.41;100.00
70304;BME280;57712;48.752;11.348;2024-01-15T02:33:10;96274.06;;;-2.32;100.00
70304;BME280;57712;48.752;11.348;2024-01-15T02:35:38;96278.06;;;-2.18;100.00
70304;BME280;57712;48.752;11.348;2024-01-15T02:38:06;96274.88;;;-2.27;100.00
70304;BME280;57712;48.752;11.348;2024-01-15T02:40:34;96296.34;;;-2.27;100.00
70304;BME280;57712;48.752;11.348;2024-01-15T02:43:00;96283.50;;;-2.11;100.00
70304;BME280;57712;48.752;11.348;2024-01-15T02:45:27;96283.94;;;-2.06;100.00
70304;BME280;57712;48.752;11.348;2024-01-15T02:47:54;96281.22;;;-2.09;100.00
70304;BME280;57712;48.752;11.348;2024-01-15T02:50:21;96276.66;;;-2.05;100.00
70304;BME280;57712;48.752;11.348;2024-01-15T02:52:48;96275.25;;;-1.95;100.00
70304;BME280;57712;48.752;11.348;2024-01-15T02:55:15;96280.44;;;-2.10;100.00
70304;BME280;57712;48.752;11.348;2024-01-15T02:57:42;96278.06;;;-2.18;100.00
70304;BME280;57712;48.752;11.348;2024-01-15T03:00:09;96269.69;;;-2.13;100.00
70304;BME280;57712;48.752;11.348;2024-01-15T03:02:37;96272.97;;;-1.93;100.00
70304;BME280;57712;48.752;11.348;2024-01-15T03:05:10;96274.06;;;-1.98;100.00
70304;BME280;57712;48.752;11.348;2024-01-15T03:07:37;96276.38;;;-1.96;100.00
70304;BME280;57712;48.752;11.348;2024-01-15T03:10:04;96272.56;;;-1.95;100.00
70304;BME280;57712;48.752;11.348;2024-01-15T03:12:32;96269.50;;;-1.94;100.00
70304;BME280;57712;48.752;11.348;2024-01-15T03:14:59;96263.00;;;-1.93;100.00
70304;BME280;57712;48.752;11.348;2024-01-15T03:17:26;96262.59;;;-1.95;100.00
70304;BME280;57712;48.752;11.348;2024-01-15T03:19:55;96257.97;;;-1.98;100.00
70304;BME280;57712;48.752;11.348;2024-01-15T03:22:22;96246.50;;;-1.95;100.00
70304;BME280;57712;48.752;11.348;2024-01-15T03:24:49;96251.56;;;-1.86;100.00
70304;BME280;57712;48.752;11.348;2024-01-15T03:27:16;96246.97;;;-1.86;100.00
70304;BME280;57712;48.752;11.348;2024-01-15T03:29:42;96249.41;;;-1.73;100.00
70304;BME280;57712;48.752;11.348;2024-01-15T03:32:09;96259.38;;;-1.74;100.00
70304;BME280;57712;48.752;11.348;2024-01-15T03:34:36;96251.81;;;-1.61;100.00
70304;BME280;57712;48.752;11.348;2024-01-15T03:37:03;96246.13;;;-1.56;100.00
70304;BME280;57712;48.752;11.348;2024-01-15T03:39:30;96245.28;;;-1.60;100.00
70304;BME280;57712;48.752;11.348;2024-01-15T03:41:57;96253.13;;;-1.41;100.00
70304;BME280;57712;48.752;11.348;2024-01-15T03:44:24;96252.75;;;-1.39;100.00
70304;BME280;57712;48.752;11.348;2024-01-15T03:46:51;96246.69;;;-1.33;100.00
70304;BME280;57712;48.752;11.348;2024-01-15T03:49:18;96252.00;;;-1.40;100.00
70304;BME280;57712;48.752;11.348;2024-01-15T03:51:45;96256.25;;;-1.35;100.00
70304;BME280;57712;48.752;11.348;2024-01-15T03:54:14;96252.47;;;-1.27;100.00
70304;BME280;57712;48.752;11.348;2024-01-15T03:56:45;96250.22;;;-1.22;100.00
70304;BME280;57712;48.752;11.348;2024-01-15T03:59:11;96254.44;;;-1.24;100.00
70304;BME280;57712;48.752;11.348;2024-01-15T04:01:38;96255.94;;;-1.27;100.00
70304;BME280;57712;48.752;11.348;2024-01-15T04:04:05;96257.13;;;-1.21;100.00
70304;BME280;57712;48.752;11.348;2024-01-15T04:06:32;96243.63;;;-1.28;100.00
70304;BME280;57712;48.752;11.348;2024-01-15T04:08:58;96249.06;;;-1.21;100.00
70304;BME280;57712;48.752;11.348;2024-01-15T04:11:25;96257.53;;;-1.19;100.00
70304;BME280;57712;48.752;11.348;2024-01-15T04:13:52;96246.78;;;-1.15;100.00
70304;BME280;57712;48.752;11.348;2024-01-15T04:16:18;96237.63;;;-1.10;100.00
70304;BME280;57712;48.752;11.348;2024-01-15T04:18:45;96254.94;;;-1.04;100.00
70304;BME280;57712;48.752;11.348;2024-01-15T04:21:12;96249.91;;;-1.09;100.00
70304;BME280;57712;48.752;11.348;2024-01-15T04:23:39;96253.81;;;-1.03;100.00
70304;BME280;57712;48.752;11.348;2024-01-15T04:26:06;96254.66;;;-0.92;100.00
70304;BME280;57712;48.752;11.348;2024-01-15T04:28:32;96252.25;;;-1.04;100.00
70304;BME280;57712;48.752;11.348;2024-01-15T04:30:59;96246.63;;;-0.85;100.00
70304;BME280;57712;48.752;11.348;2024-01-15T04:33:26;96257.28;;;-0.99;100.00
70304;BME280;57712;48.752;11.348;2024-01-15T04:35:53;96249.16;;;-1.06;100.00
70304;BME280;57712;48.752;11.348;2024-01-15T04:38:19;96242.38;;;-0.90;100.00
70304;BME280;57712;48.752;11.348;2024-01-15T04:40:46;96250.75;;;-1.02;100.00
70304;BME280;57712;48.752;11.348;2024-01-15T04:43:13;96240.38;;;-1.03;100.00
70304;BME280;57712;48.752;11.348;2024-01-15T04:45:39;96242.00;;;-0.92;100.00
70304;BME280;57712;48.752;11.348;2024-01-15T04:48:06;96247.66;;;-1.04;100.00
70304;BME280;57712;48.752;11.348;2024-01-15T04:50:33;96239.25;;;-0.99;100.00
70304;BME280;57712;48.752;11.348;2024-01-15T04:52:59;96247.03;;;-0.83;100.00
70304;BME280;57712;48.752;11.348;2024-01-15T04:55:26;96242.84;;;-0.77;100.00
70304;BME280;57712;48.752;11.348;2024-01-15T04:57:53;96241.63;;;-0.87;100.00
70304;BME280;57712;48.752;11.348;2024-01-15T05:00:20;96234.69;;;-0.91;100.00
70304;BME280;57712;48.752;11.348;2024-01-15T05:02:47;96227.03;;;-0.89;100.00
70304;BME280;57712;48.752;11.348;2024-01-15T05:05:13;96220.09;;;-0.94;100.00
70304;BME280;57712;48.752;11.348;2024-01-15T05:07:40;96228.22;;;-0.79;100.00
70304;BME280;57712;48.752;11.348;2024-01-15T05:10:07;96221.72;;;-0.78;100.00
70304;BME280;57712;48.752;11.348;2024-01-15T05:12:34;96214.75;;;-0.87;100.00
70304;BME280;57712;48.752;11.348;2024-01-15T05:15:01;96215.16;;;-0.81;100.00
70304;BME280;57712;48.752;11.348;2024-01-15T05:17:28;96222.91;;;-0.69;100.00
70304;BME280;57712;48.752;11.348;2024-01-15T05:19:54;96217.91;;;-0.67;100.00
70304;BME280;57712;48.752;11.348;2024-01-15T05:22:21;96226.75;;;-0.70;100.00
70304;BME280;57712;48.752;11.348;2024-01-15T05:24:51;96217.88;;;-0.74;100.00
70304;BME280;57712;48.752;11.348;2024-01-15T05:27:18;96228.63;;;-0.74;100.00
70304;BME280;57712;48.752;11.348;2024-01-15T05:29:44;96222.50;;;-0.74;100.00
70304;BME280;57712;48.752;11.348;2024-01-15T05:32:11;96230.19;;;-0.73;100.00
70304;BME280;57712;48.752;11.348;2024-01-15T05:34:39;96242.50;;;-0.72;100.00
70304;BME280;57712;48.752;11.348;2024-01-15T05:37:06;96229.44;;;-0.63;100.00
70304;BME280;57712;48.752;11.348;2024-01-15T05:39:33;96226.38;;;-0.65;100.00
70304;BME280;57712;48.752;11.348;2024-01-15T05:41:59;96230.25;;;-0.59;100.00
70304;BME280;57712;48.752;11.348;2024-01-15T05:44:28;96221.81;;;-0.53;100.00
70304;BME280;57712;48.752;11.348;2024-01-15T05:46:54;96224.44;;;-0.71;100.00
70304;BME280;57712;48.752;11.348;2024-01-15T05:49:21;96213.31;;;-0.70;100.00
70304;BME280;57712;48.752;11.348;2024-01-15T05:51:48;96225.59;;;-0.69;100.00
70304;BME280;57712;48.752;11.348;2024-01-15T05:54:15;96218.69;;;-0.63;100.00
70304;BME280;57712;48.752;11.348;2024-01-15T05:56:42;96214.84;;;-0.65;100.00
70304;BME280;57712;48.752;11.348;2024-01-15T05:59:09;96227.97;;;-0.56;100.00
70304;BME280;57712;48.752;11.348;2024-01-15T06:01:40;96227.19;;;-0.61;100.00
70304;BME280;57712;48.752;11.348;2024-01-15T06:04:08;96217.16;;;-0.64;100.00
70304;BME280;57712;48.752;11.348;2024-01-15T06:06:35;96211.88;;;-0.49;100.00
70304;BME280;57712;48.752;11.348;2024-01-15T06:09:02;96224.94;;;-0.51;100.00
70304;BME280;57712;48.752;11.348;2024-01-15T06:11:32;96221.03;;;-0.61;100.00
70304;BME280;57712;48.752;11.348;2024-01-15T06:13:59;96219.19;;;-0.43;100.00
70304;BME280;57712;48.752;11.348;2024-01-15T06:16:29;96215.28;;;-0.60;100.00
70304;BME280;57712;48.752;11.348;2024-01-15T06:18:55;96214.19;;;-0.44;100.00
70304;BME280;57712;48.752;11.348;2024-01-15T06:21:22;96212.59;;;-0.52;100.00
70304;BME280;57712;48.752;11.348;2024-01-15T06:23:49;96211.53;;;-0.41;100.00
70304;BME280;57712;48.752;11.348;2024-01-15T06:26:16;96210.38;;;-0.36;100.00
70304;BME280;57712;48.752;11.348;2024-01-15T06:28:43;96205.38;;;-0.41;100.00
70304;BME280;57712;48.752;11.348;2024-01-15T06:31:09;96210.75;;;-0.41;100.00
70304;BME280;57712;48.752;11.348;2024-01-15T06:33:36;96210.38;;;-0.36;100.00
70304;BME280;57712;48.752;11.348;2024-01-15T06:36:05;96207.72;;;-0.29;100.00
70304;BME280;57712;48.752;11.348;2024-01-15T06:38:33;96210.41;;;-0.22;100.00
70304;BME280;57712;48.752;11.348;2024-01-15T06:41:00;96205.03;;;-0.22;100.00
70304;BME280;57712;48.752;11.348;2024-01-15T06:43:27;96202.31;;;-0.33;100.00
70304;BME280;57712;48.752;11.348;2024-01-15T06:45:54;96203.06;;;-0.32;100.00
70304;BME280;57712;48.752;11.348;2024-01-15T06:48:21;96184.69;;;-0.16;100.00
70304;BME280;57712;48.752;11.348;2024-01-15T06:50:47;96188.88;;;-0.29;100.00
70304;BME280;57712;48.752;11.348;2024-01-15T06:53:16;96184.28;;;-0.25;100.00
70304;BME280;57712;48.752;11.348;2024-01-15T06:55:43;96189.28;;;-0.27;100.00
70304;BME280;57712;48.752;11.348;2024-01-15T06:58:10;96192.38;;;-0.18;100.00
70304;BME280;57712;48.752;11.348;2024-01-15T07:00:37;96209.66;;;-0.12;100.00
70304;BME280;57712;48.752;11.348;2024-01-15T07:03:04;96212.03;;;0.01;100.00
70304;BME280;57712;48.752;11.348;2024-01-15T07:05:31;96211.25;;;-0.07;100.00
70304;BME280;57712;48.752;11.348;2024-01-15T07:07:58;96208.13;;;-0.13;100.00
70304;BME280;57712;48.752;11.348;2024-01-15T07:10:25;96212.75;;;-0.13;100.00
70304;BME280;57712;48.752;11.348;2024-01-15T07:12:52;96206.63;;;-0.03;100.00
70304;BME280;57712;48.752;11.348;2024-01-15T07:15:20;96200.06;;;-0.16;100.00
70304;BME280;57712;48.752;11.348;2024-01-15T07:17:47;96215.06;;;-0.15;100.00
70304;BME280;57712;48.752;11.348;2024-01-15T07:20:14;96211.94;;;-0.28;100.00
70304;BME280;57712;48.752;11.348;2024-01-15T07:22:40;96207.38;;;-0.17;100.00
70304;BME280;57712;48.752;11.348;2024-01-15T07:25:07;96214.25;;;-0.23;100.00
70304;BME280;57712;48.752;11.348;2024-01-15T07:27:34;96201.94;;;-0.24;100.00
70304;BME280;57712;48.752;11.348;2024-01-15T07:30:01;96203.56;;;-0.09;100.00
70304;BME280;57712;48.752;11.348;2024-01-15T07:32:30;96204.22;;;-0.33;100.00
70304;BME280;57712;48.752;11.348;2024-01-15T07:34:58;96207.41;;;-0.10;100.00
70304;BME280;57712;48.752;11.348;2024-01-15T07:37:26;96209.31;;;-0.10;100.00
70304;BME280;57712;48.752;11.348;2024-01-15T07:39:52;96203.13;;;-0.18;100.00
70304;BME280;57712;48.752;11.348;2024-01-15T07:42:22;96204.25;;;-0.22;100.00
70304;BME280;57712;48.752;11.348;2024-01-15T07:44:49;96208.13;;;-0.13;100.00
70304;BME280;57712;48.752;11.348;2024-01-15T07:47:17;96215.88;;;0.03;100.00
70304;BME280;57712;48.752;11.348;2024-01-15T07:49:44;96211.97;;;-0.14;100.00
70304;BME280;57712;48.752;11.348;2024-01-15T07:52:11;96212.78;;;0.05;100.00
70304;BME280;57712;48.752;11.348;2024-01-15T07:54:39;96218.22;;;0.12;100.00
70304;BME280;57712;48.752;11.348;2024-01-15T07:57:06;96232.81;;;0.11;100.00
70304;BME280;57712;48.752;11.348;2024-01-15T07:59:34;96230.50;;;0.13;100.00
70304;BME280;57712;48.752;11.348;2024-01-15T08:02:01;96228.97;;;0.19;100.00
70304;BME280;57712;48.752;11.348;2024-01-15T08:04:28;96225.91;;;0.31;100.00
70304;BME280;57712;48.752;11.348;2024-01-15T08:06:56;96217.81;;;0.31;100.00
70304;BME280;57712;48.752;11.348;2024-01-15T08:09:23;96230.53;;;0.27;100.00
70304;BME280;57712;48.752;11.348;2024-01-15T08:11:50;96218.22;;;0.40;100.00
70304;BME280;57712;48.752;11.348;2024-01-15T08:14:17;96208.63;;;0.46;100.00
70304;BME280;57712;48.752;11.348;2024-01-15T08:16:44;96211.69;;;0.41;100.00
70304;BME280;57712;48.752;11.348;2024-01-15T08:19:11;96209.78;;;0.52;100.00
70304;BME280;57712;48.752;11.348;2024-01-15T08:21:38;96201.72;;;0.52;100.00
70304;BME280;57712;48.752;11.348;2024-01-15T08:24:05;96203.59;;;0.41;100.00
70304;BME280;57712;48.752;11.348;2024-01-15T08:26:32;96203.59;;;0.27;100.00
70304;BME280;57712;48.752;11.348;2024-01-15T08:29:02;96203.59;;;0.52;100.00
70304;BME280;57712;48.752;11.348;2024-01-15T08:31:29;96199.38;;;0.51;100.00
70304;BME280;57712;48.752;11.348;2024-01-15T08:33:56;96197.44;;;0.51;100.00
70304;BME280;57712;48.752;11.348;2024-01-15T08:36:23;96204.78;;;0.47;100.00
70304;BME280;57712;48.752;11.348;2024-01-15T08:38:50;96196.69;;;0.44;100.00
70304;BME280;57712;48.752;11.348;2024-01-15T08:41:17;96197.84;;;0.68;100.00
70304;BME280;57712;48.752;11.348;2024-01-15T08:43:44;96203.59;;;0.70;100.00
70304;BME280;57712;48.752;11.348;2024-01-15T08:46:10;96205.91;;;0.82;100.00
70304;BME280;57712;48.752;11.348;2024-01-15T08:48:37;96204.78;;;0.76;100.00
70304;BME280;57712;48.752;11.348;2024-01-15T08:51:04;96203.59;;;0.80;100.00
70304;BME280;57712;48.752;11.348;2024-01-15T08:53:31;96194.38;;;0.85;100.00
70304;BME280;57712;48.752;11.348;2024-01-15T08:55:59;96199.75;;;0.85;100.00
70304;BME280;57712;48.752;11.348;2024-01-15T08:58:25;96208.25;;;0.66;100.00
70304;BME280;57712;48.752;11.348;2024-01-15T09:00:52;96199.78;;;0.74;100.00
70304;BME280;57712;48.752;11.348;2024-01-15T09:03:19;96199.75;;;0.71;100.00
70304;BME280;57712;48.752;11.348;2024-01-15T09:05:46;96201.31;;;0.86;100.00
70304;BME280;57712;48.752;11.348;2024-01-15T09:08:13;96202.06;;;0.90;100.00
70304;BME280;57712;48.752;11.348;2024-01-15T09:10:39;96198.97;;;0.88;100.00
70304;BME280;57712;48.752;11.348;2024-01-15T09:13:07;96195.13;;;0.89;100.00
70304;BME280;57712;48.752;11.348;2024-01-15T09:15:34;96208.22;;;0.87;100.00
70304;BME280;57712;48.752;11.348;2024-01-15T09:18:01;96207.84;;;0.89;100.00
70304;BME280;57712;48.752;11.348;2024-01-15T09:20:32;96208.97;;;1.05;100.00
70304;BME280;57712;48.752;11.348;2024-01-15T09:22:59;96205.91;;;0.96;100.00
70304;BME280;57712;48.752;11.348;2024-01-15T09:25:25;96213.63;;;0.94;100.00
70304;BME280;57712;48.752;11.348;2024-01-15T09:27:52;96210.94;;;0.94;100.00
70304;BME280;57712;48.752;11.348;2024-01-15T09:30:19;96203.59;;;0.98;100.00
70304;BME280;57712;48.752;11.348;2024-01-15T09:32:46;96204.72;;;1.11;100.00
70304;BME280;57712;48.752;11.348;2024-01-15T09:35:13;96203.97;;;1.00;100.00
70304;BME280;57712;48.752;11.348;2024-01-15T09:37:40;96216.69;;;1.00;100.00
70304;BME280;57712;48.752;11.348;2024-01-15T09:40:14;96217.84;;;0.95;100.00
70304;BME280;57712;48.752;11.348;2024-01-15T09:42:42;96206.63;;;1.14;100.00
70304;BME280;57712;48.752;11.348;2024-01-15T09:45:10;96214.75;;;1.00;100.00
70304;BME280;57712;48.752;11.348;2024-01-15T09:47:38;96203.94;;;1.14;100.00
70304;BME280;57712;48.752;11.348;2024-01-15T09:50:10;96208.94;;;1.12;100.00
70304;BME280;57712;48.752;11.348;2024-01-15T09:52:38;96192.75;;;1.12;100.00
70304;BME280;57712;48.752;11.348;2024-01-15T09:55:05;96203.53;;;1.20;100.00
70304;BME280;57712;48.752;11.348;2024-01-15T09:57:33;96202.00;;;1.22;100.00
70304;BME280;57712;48.752;11.348;2024-01-15T10:00:02;96202.03;;;1.11;100.00
70304;BME280;57712;48.752;11.348;2024-01-15T10:02:31;96197.34;;;1.30;100.00
70304;BME280;57712;48.752;11.348;2024-01-15T10:04:58;96198.53;;;1.29;100.00
70304;BME280;57712;48.752;11.348;2024-01-15T10:07:25;96201.53;;;1.52;100.00
70304;BME280;57712;48.752;11.348;2024-01-15T10:09:52;96182.66;;;1.45;100.00
70304;BME280;57712;48.752;11.348;2024-01-15T10:12:21;96189.22;;;1.44;100.00
70304;BME280;57712;48.752;11.348;2024-01-15T10:14:48;96174.91;;;1.54;100.00
70304;BME280;57712;48.752;11.348;2024-01-15T10:17:16;96179.97;;;1.41;100.00
70304;BME280;57712;48.752;11.348;2024-01-15T10:19:46;96177.22;;;1.52;100.00
70304;BME280;57712;48.752;11.348;2024-01-15T10:22:16;96178.03;;;1.49;100.00
70304;BME280;57712;48.752;11.348;2024-01-15T10:24:45;96172.94;;;1.65;100.00
70304;BME280;57712;48.752;11.348;2024-01-15T10:27:15;96169.41;;;1.76;100.00
70304;BME280;57712;48.752;11.348;2024-01-15T10:29:42;96159.19;;;2.08;100.00
70304;BME280;57712;48.752;11.348;2024-01-15T10:32:10;96157.06;;;2.37;100.00
70304;BME280;57712;48.752;11.348;2024-01-15T10:34:38;96154.75;;;2.80;100.00
70304;BME280;57712;48.752;11.348;2024-01-15T10:37:08;96159.44;;;2.76;100.00
70304;BME280;57712;48.752;11.348;2024-01-15T10:39:36;96157.28;;;2.05;100.00
70304;BME280;57712;48.752;11.348;2024-01-15T10:42:03;96157.75;;;1.93;100.00
70304;BME280;57712;48.752;11.348;2024-01-15T10:44:30;96155.25;;;2.23;100.00
70304;BME280;57712;48.752;11.348;2024-01-15T10:46:57;96150.81;;;1.92;100.00
70304;BME280;57712;48.752;11.348;2024-01-15T10:49:24;96147.09;;;2.30;100.00
70304;BME280;57712;48.752;11.348;2024-01-15T10:51:59;96156.13;;;2.06;100.00
70304;BME280;57712;48.752;11.348;2024-01-15T10:54:27;96140.00;;;1.95;100.00
70304;BME280;57712;48.752;11.348;2024-01-15T10:56:56;96152.19;;;2.21;100.00
70304;BME280;57712;48.752;11.348;2024-01-15T10:59:23;96156.19;;;1.99;100.00
70304;BME280;57712;48.752;11.348;2024-01-15T11:01:51;96148.56;;;2.39;100.00
70304;BME280;57712;48.752;11.348;2024-01-15T11:04:23;96146.16;;;1.96;100.00
70304;BME280;57712;48.752;11.348;2024-01-15T11:07:05;96143.81;;;1.98;100.00
70304;BME280;57712;48.752;11.348;2024-01-15T11:09:32;96153.97;;;1.80;100.00
70304;BME280;57712;48.752;11.348;2024-01-15T11:12:10;96152.78;;;1.88;100.00
70304;BME280;57712;48.752;11.348;2024-01-15T11:14:41;96143.41;;;2.03;100.00
70304;BME280;57712;48.752;11.348;2024-01-15T11:17:12;96150.72;;;2.06;100.00
70304;BME280;57712;48.752;11.348;2024-01-15T11:19:47;96148.56;;;1.83;100.00
70304;BME280;57712;48.752;11.348;2024-01-15T11:25:01;96142.22;;;2.11;100.00
70304;BME280;57712;48.752;11.348;2024-01-15T11:27:40;96143.25;;;1.65;100.00
70304;BME280;57712;48.752;11.348;2024-01-15T11:30:08;96143.16;;;1.83;100.00
70304;BME280;57712;48.752;11.348;2024-01-15T11:32:38;96135.38;;;1.92;100.00
70304;BME280;57712;48.752;11.348;2024-01-15T11:35:10;96131.09;;;2.02;100.00
70304;BME280;57712;48.752;11.348;2024-01-15T11:40:21;96128.53;;;2.33;100.00
70304;BME280;57712;48.752;11.348;2024-01-15T11:42:49;96137.94;;;2.14;100.00
70304;BME280;57712;48.752;11.348;2024-01-15T11:45:19;96142.72;;;2.44;100.00
70304;BME280;57712;48.752;11.348;2024-01-15T11:50:31;96135.03;;;2.39;100.00
70304;BME280;57712;48.752;11.348;2024-01-15T11:53:03;96141.44;;;2.07;100.00
70304;BME280;57712;48.752;11.348;2024-01-15T11:55:39;96142.94;;;2.15;100.00
70304;BME280;57712;48.752;11.348;2024-01-15T11:58:08;96129.25;;;1.88;100.00
70304;BME280;57712;48.752;11.348;2024-01-15T12:00:44;96122.94;;;2.09;100.00
70304;BME280;57712;48.752;11.348;2024-01-15T12:03:11;96113.91;;;2.26;100.00
70304;BME280;57712;48.752;11.348;2024-01-15T12:05:39;96111.56;;;2.28;100.00
70304;BME280;57712;48.752;11.348;2024-01-15T12:08:06;96106.94;;;2.29;100.00
70304;BME280;57712;48.752;11.348;2024-01-15T12:10:39;96109.16;;;1.93;100.00
70304;BME280;57712;48.752;11.348;2024-01-15T12:13:14;96089.44;;;1.96;100.00
70304;BME280;57712;48.752;11.348;2024-01-15T12:15:42;96091.31;;;2.06;100.00
70304;BME280;57712;48.752;11.348;2024-01-15T12:18:15;96088.13;;;2.18;100.00
70304;BME280;57712;48.752;11.348;2024-01-15T12:20:43;96100.69;;;1.91;100.00
70304;BME280;57712;48.752;11.348;2024-01-15T12:23:10;96088.19;;;2.08;100.00
70304;BME280;57712;48.752;11.348;2024-01-15T12:25:38;96091.34;;;2.02;100.00
70304;BME280;57712;48.752;11.348;2024-01-15T12:28:06;96081.41;;;1.89;100.00
70304;BME280;57712;48.752;11.348;2024-01-15T12:30:33;96100.63;;;1.98;100.00
70304;BME280;57712;48.752;11.348;2024-01-15T12:33:04;96089.28;;;2.17;100.00
70304;BME280;57712;48.752;11.348;2024-01-15T12:35:33;96088.13;;;2.18;100.00
70304;BME280;57712;48.752;11.348;2024-01-15T12:38:01;96088.06;;;2.25;100.00
70304;BME280;57712;48.752;11.348;2024-01-15T12:40:30;96086.91;;;1.74;100.00
70304;BME280;57712;48.752;11.348;2024-01-15T12:42:57;96077.41;;;2.08;100.00
70304;BME280;57712;48.752;11.348;2024-01-15T12:45:24;96071.47;;;1.79;100.00
70304;BME280;57712;48.752;11.348;2024-01-15T12:47:51;96065.25;;;1.82;100.00
70304;BME280;57712;48.752;11.348;2024-01-15T12:50:18;96067.44;;;1.97;100.00
70304;BME280;57712;48.752;11.348;2024-01-15T12:52:46;96058.13;;;2.06;100.00